モスクワ/シェレメーチエヴォ の空港の天気 - METARとTAF

シェレメーチエヴォ国際空港(モスクワ) ( UUEE / SVO ) - ロシア モスクワ
飛行場実況気象(Metar)
観測時間06/29 04:30 MSK (06/29 01:30 UTC)
風向・風速西 2m/s
視程10km以上
天気現象
なし
気温9℃
湿度87%
気圧1014hPa
METARUUEE 290130Z 26002MPS CAVOK 09/07 Q1014 R24L/CLRD62 NOSIG
過去の天気等 Google飛行場航空写真 Wunderground天気予報

過去48時間のMETAR

飛行場予報(TAF)
発表時間: 6/29 01:51 MSK (6/28 22:51 UTC)
予報対象時間: 29日3時 MSK ~ 30日3時 MSK
風向・風速西南西 3m/s
視程10km以上
全天の4割程度の雲 雲底高度 910m
29日20時 MSK ~ 29日22時 MSK に徐々に
風向・風速東 6m/s
全天の8割程度の雲 雲底高度 460m
TAF UUEE 282251Z 2900/2924 24003MPS 9999 SCT030 TX22/2912Z TN10/2901Z
BECMG 2917/2919 09006MPS BKN015